createdAt,value
2023-04-29T00:01:05.499Z,12.60
2023-04-29T00:03:32.650Z,12.60
2023-04-29T00:06:00.448Z,12.60
2023-04-29T00:08:27.591Z,12.60
2023-04-29T00:10:54.234Z,12.60
2023-04-29T00:13:21.266Z,12.60
2023-04-29T00:15:48.137Z,12.60
2023-04-29T00:18:14.755Z,12.50
2023-04-29T00:20:42.208Z,12.50
2023-04-29T00:23:09.106Z,12.40
2023-04-29T00:25:36.023Z,12.30
2023-04-29T00:28:03.358Z,12.10
2023-04-29T00:30:31.007Z,12.10
2023-04-29T00:32:57.676Z,12.10
2023-04-29T00:35:24.410Z,12.10
2023-04-29T00:37:50.999Z,12.10
2023-04-29T00:40:17.733Z,12.10
2023-04-29T00:42:44.555Z,12.10
2023-04-29T00:45:11.865Z,12.00
2023-04-29T00:47:39.113Z,12.00
2023-04-29T00:50:07.649Z,12.00
2023-04-29T00:52:34.921Z,12.00
2023-04-29T00:55:02.597Z,11.90
2023-04-29T00:57:30.101Z,11.90
2023-04-29T00:59:58.835Z,11.90
2023-04-29T01:02:26.727Z,11.80
2023-04-29T01:04:53.703Z,11.80
2023-04-29T01:07:31.596Z,11.80
2023-04-29T01:10:15.720Z,11.80
2023-04-29T01:12:47.014Z,11.70
2023-04-29T01:15:29.343Z,11.70
2023-04-29T01:18:00.817Z,11.70
2023-04-29T01:20:28.208Z,11.70
2023-04-29T01:22:54.872Z,11.70
2023-04-29T01:25:21.445Z,11.60
2023-04-29T01:28:06.764Z,11.60
2023-04-29T01:30:45.297Z,11.60
2023-04-29T01:33:48.606Z,11.60
2023-04-29T01:36:48.230Z,11.60
2023-04-29T01:39:21.243Z,11.60
2023-04-29T01:41:58.942Z,11.60
2023-04-29T01:44:29.835Z,11.50
2023-04-29T01:46:57.165Z,11.40
2023-04-29T01:49:27.928Z,11.40
2023-04-29T01:51:54.932Z,11.30
2023-04-29T01:54:24.883Z,11.30
2023-04-29T01:56:52.169Z,11.20
2023-04-29T01:59:18.821Z,11.20
2023-04-29T02:01:45.420Z,11.20
2023-04-29T02:04:12.167Z,11.20
2023-04-29T02:06:38.832Z,11.20
2023-04-29T02:09:05.453Z,11.20
2023-04-29T02:11:32.088Z,11.20
2023-04-29T02:13:58.728Z,11.20
2023-04-29T02:16:25.469Z,11.20
2023-04-29T02:18:52.081Z,11.20
2023-04-29T02:21:18.709Z,11.10
2023-04-29T02:23:45.498Z,11.10
2023-04-29T02:26:12.341Z,11.10
2023-04-29T02:28:38.957Z,11.20
2023-04-29T02:31:05.763Z,11.20
2023-04-29T02:33:33.078Z,11.20
2023-04-29T02:35:59.818Z,11.20
2023-04-29T02:38:26.617Z,11.10
2023-04-29T02:40:53.279Z,11.10
2023-04-29T02:43:20.012Z,11.00
2023-04-29T02:45:46.681Z,11.00
2023-04-29T02:48:13.331Z,10.90
2023-04-29T02:50:40.062Z,10.90
2023-04-29T02:53:06.751Z,10.90
2023-04-29T02:55:34.098Z,10.90
2023-04-29T02:58:00.695Z,10.90
2023-04-29T03:00:27.281Z,10.80
2023-04-29T03:02:53.981Z,10.80
2023-04-29T03:05:20.757Z,10.80
2023-04-29T03:07:47.443Z,10.80
2023-04-29T03:10:14.109Z,10.90
2023-04-29T03:12:40.881Z,10.90
2023-04-29T03:15:08.127Z,10.90
2023-04-29T03:17:34.793Z,10.90
2023-04-29T03:20:01.628Z,10.90
2023-04-29T03:22:28.300Z,11.00
2023-04-29T03:24:54.964Z,11.00
2023-04-29T03:27:22.177Z,11.00
2023-04-29T03:29:49.374Z,11.00
2023-04-29T03:32:16.178Z,11.00
2023-04-29T03:34:42.841Z,11.00
2023-04-29T03:37:09.441Z,10.90
2023-04-29T03:39:36.056Z,10.90
2023-04-29T03:42:03.059Z,10.90
2023-04-29T03:44:29.854Z,10.80
2023-04-29T03:46:56.513Z,10.80
2023-04-29T03:49:23.759Z,10.80
2023-04-29T03:51:50.577Z,10.80
2023-04-29T03:54:17.374Z,10.80
2023-04-29T03:56:44.174Z,10.70
2023-04-29T03:59:10.890Z,10.70
2023-04-29T04:01:37.670Z,10.70
2023-04-29T04:04:04.603Z,10.70
2023-04-29T04:06:31.837Z,10.70
2023-04-29T04:08:58.491Z,10.60
2023-04-29T04:11:25.237Z,10.60
2023-04-29T04:13:52.093Z,10.70
2023-04-29T04:16:18.846Z,10.70
2023-04-29T04:18:45.670Z,10.60
2023-04-29T04:21:12.984Z,10.60
2023-04-29T04:23:42.495Z,10.60
2023-04-29T04:26:09.344Z,10.60
2023-04-29T04:28:35.951Z,10.60
2023-04-29T04:31:02.849Z,10.60
2023-04-29T04:33:29.452Z,10.60
2023-04-29T04:35:56.186Z,10.60
2023-04-29T04:38:25.284Z,10.50
2023-04-29T04:40:52.059Z,10.50
2023-04-29T04:43:18.922Z,10.50
2023-04-29T04:45:45.761Z,10.50
2023-04-29T04:48:12.450Z,10.50
2023-04-29T04:50:39.139Z,10.50
2023-04-29T04:53:05.817Z,10.50
2023-04-29T04:55:33.519Z,10.50
2023-04-29T04:58:00.229Z,10.50
2023-04-29T05:00:26.887Z,10.40
2023-04-29T05:02:53.665Z,10.40
2023-04-29T05:05:20.350Z,10.40
2023-04-29T05:07:47.238Z,10.40
2023-04-29T05:10:14.332Z,10.30
2023-04-29T05:12:41.140Z,10.40
2023-04-29T05:15:08.456Z,10.40
2023-04-29T05:17:36.489Z,10.40
2023-04-29T05:20:03.610Z,10.40
2023-04-29T05:22:30.549Z,10.50
2023-04-29T05:25:02.686Z,10.40
2023-04-29T05:27:29.709Z,10.50
2023-04-29T05:29:56.920Z,10.50
2023-04-29T05:32:23.840Z,10.40
2023-04-29T05:34:50.677Z,10.40
2023-04-29T05:37:17.334Z,10.40
2023-04-29T05:39:43.990Z,10.30
2023-04-29T05:42:10.562Z,10.20
2023-04-29T05:44:37.178Z,10.10
2023-04-29T05:47:03.793Z,10.10
2023-04-29T05:49:30.443Z,10.10
2023-04-29T05:51:57.107Z,10.00
2023-04-29T05:54:23.727Z,10.00
2023-04-29T05:56:50.335Z,10.00
2023-04-29T05:59:16.901Z,10.00
2023-04-29T06:01:43.478Z,10.00
2023-04-29T06:04:10.456Z,9.90
2023-04-29T06:06:37.314Z,9.90
2023-04-29T06:09:08.398Z,9.90
2023-04-29T06:11:37.493Z,9.90
2023-04-29T06:14:04.109Z,9.80
2023-04-29T06:16:30.811Z,9.90
2023-04-29T06:18:57.423Z,9.90
2023-04-29T06:21:24.170Z,10.00
2023-04-29T06:23:51.198Z,10.00
2023-04-29T06:26:19.025Z,10.00
2023-04-29T06:28:45.606Z,10.00
2023-04-29T06:31:12.564Z,10.10
2023-04-29T06:33:39.524Z,10.10
2023-04-29T06:36:06.505Z,10.20
2023-04-29T06:38:33.107Z,10.30
2023-04-29T06:41:00.915Z,10.40
2023-04-29T06:43:27.966Z,10.50
2023-04-29T06:45:54.602Z,10.60
2023-04-29T06:48:21.589Z,10.60
2023-04-29T06:50:52.865Z,10.50
2023-04-29T06:53:19.789Z,10.60
2023-04-29T06:55:46.596Z,10.50
2023-04-29T06:58:14.425Z,10.60
2023-04-29T07:00:43.902Z,10.50
2023-04-29T07:03:11.267Z,10.50
2023-04-29T07:05:42.005Z,10.40
2023-04-29T07:08:10.282Z,10.30
2023-04-29T07:10:37.103Z,10.30
2023-04-29T07:13:05.810Z,10.30
2023-04-29T07:15:36.633Z,10.30
2023-04-29T07:18:06.870Z,10.40
2023-04-29T07:20:36.346Z,10.50
2023-04-29T07:23:03.368Z,10.50
2023-04-29T07:25:30.677Z,10.50
2023-04-29T07:27:57.412Z,10.60
2023-04-29T07:30:24.204Z,10.60
2023-04-29T07:32:50.886Z,10.60
2023-04-29T07:35:17.628Z,10.50
2023-04-29T07:37:45.684Z,10.60
2023-04-29T07:40:12.609Z,10.60
2023-04-29T07:42:40.343Z,10.60
2023-04-29T07:45:07.470Z,10.60
2023-04-29T07:47:35.956Z,10.60
2023-04-29T07:50:02.769Z,10.60
2023-04-29T07:52:30.405Z,10.60
2023-04-29T07:54:57.300Z,10.60
2023-04-29T07:57:23.963Z,10.70
2023-04-29T07:59:54.739Z,10.80
2023-04-29T08:02:21.837Z,11.00
2023-04-29T08:04:51.167Z,11.00
2023-04-29T08:07:18.214Z,11.10
2023-04-29T08:09:45.078Z,11.10
2023-04-29T08:12:11.856Z,11.00
2023-04-29T08:14:38.486Z,11.10
2023-04-29T08:17:05.524Z,11.20
2023-04-29T08:19:32.179Z,11.30
2023-04-29T08:21:58.811Z,11.30
2023-04-29T08:24:25.489Z,11.20
2023-04-29T08:26:53.709Z,11.20
2023-04-29T08:29:20.529Z,11.30
2023-04-29T08:31:48.031Z,11.40
2023-04-29T08:34:14.909Z,11.40
2023-04-29T08:36:41.825Z,11.40
2023-04-29T08:39:08.874Z,11.60
2023-04-29T08:41:37.008Z,11.80
2023-04-29T08:44:03.735Z,12.00
2023-04-29T08:46:31.695Z,12.30
2023-04-29T08:48:59.818Z,12.80
2023-04-29T08:51:28.554Z,12.60
2023-04-29T08:53:56.817Z,12.30
2023-04-29T08:56:25.685Z,12.10
2023-04-29T08:58:55.032Z,12.10
2023-04-29T09:01:22.996Z,12.00
2023-04-29T09:04:21.131Z,11.90
2023-04-29T09:06:48.444Z,11.80
2023-04-29T09:09:15.761Z,11.70
2023-04-29T09:11:42.414Z,11.60
2023-04-29T09:14:09.596Z,11.70
2023-04-29T09:16:38.244Z,11.70
2023-04-29T09:19:04.931Z,11.70
2023-04-29T09:21:32.314Z,11.60
2023-04-29T09:24:03.931Z,11.50
2023-04-29T09:26:42.762Z,11.60
2023-04-29T09:29:11.654Z,11.70
2023-04-29T09:31:39.490Z,11.70
2023-04-29T09:34:06.794Z,11.70
2023-04-29T09:36:50.795Z,11.70
2023-04-29T09:39:20.168Z,11.70
2023-04-29T09:41:53.125Z,11.70
2023-04-29T09:44:23.635Z,11.80
2023-04-29T09:46:58.056Z,11.70
2023-04-29T09:49:27.034Z,11.80
2023-04-29T09:51:55.631Z,11.90
2023-04-29T09:54:24.115Z,12.00
2023-04-29T09:56:52.764Z,12.10
2023-04-29T09:59:20.052Z,12.20
2023-04-29T10:01:51.428Z,12.30
2023-04-29T10:04:21.616Z,12.30
2023-04-29T10:06:54.211Z,12.40
2023-04-29T10:09:22.776Z,12.70
2023-04-29T10:11:51.716Z,12.80
2023-04-29T10:14:24.834Z,12.80
2023-04-29T10:17:13.173Z,12.60
2023-04-29T10:19:54.318Z,12.20
2023-04-29T10:22:33.732Z,12.10
2023-04-29T10:25:02.187Z,11.80
2023-04-29T10:27:31.566Z,11.70
2023-04-29T10:30:00.608Z,11.60
2023-04-29T10:32:37.022Z,11.60
2023-04-29T10:35:13.053Z,11.60
2023-04-29T10:37:40.704Z,11.80
2023-04-29T10:40:10.565Z,12.00
2023-04-29T10:42:53.287Z,12.20
2023-04-29T10:45:25.230Z,12.40
2023-04-29T10:48:08.549Z,12.70
2023-04-29T10:50:48.202Z,13.10
2023-04-29T10:53:19.941Z,13.20
2023-04-29T10:55:56.735Z,13.10
2023-04-29T10:58:43.681Z,13.10
2023-04-29T11:01:12.477Z,12.90
2023-04-29T11:03:49.598Z,12.90
2023-04-29T11:06:17.608Z,12.70
2023-04-29T11:08:44.836Z,12.50
2023-04-29T11:11:14.263Z,12.20
2023-04-29T11:13:46.976Z,11.90
2023-04-29T11:16:14.043Z,11.90
2023-04-29T11:19:08.262Z,11.70
2023-04-29T11:21:37.206Z,11.40
2023-04-29T11:24:06.357Z,11.30
2023-04-29T11:26:35.352Z,11.20
2023-04-29T11:29:02.006Z,11.10
2023-04-29T11:31:32.879Z,11.10
2023-04-29T11:34:00.630Z,11.10
2023-04-29T11:36:27.563Z,11.30
2023-04-29T11:38:54.360Z,11.30
2023-04-29T11:41:22.365Z,11.30
2023-04-29T11:43:59.562Z,11.20
2023-04-29T11:46:30.074Z,11.10
2023-04-29T11:48:58.312Z,11.00
2023-04-29T11:51:25.068Z,11.00
2023-04-29T11:53:51.839Z,11.00
2023-04-29T11:56:24.185Z,11.00
2023-04-29T11:58:53.550Z,10.90
2023-04-29T12:01:21.441Z,10.90
2023-04-29T12:03:50.810Z,10.80
2023-04-29T12:06:17.822Z,11.00
2023-04-29T12:08:47.226Z,11.20
2023-04-29T12:11:14.079Z,11.30
2023-04-29T12:13:41.237Z,11.40
2023-04-29T12:16:08.234Z,11.50
2023-04-29T12:18:35.206Z,11.60
2023-04-29T12:21:02.067Z,11.50
2023-04-29T12:23:28.739Z,11.50
2023-04-29T12:25:57.325Z,11.40
2023-04-29T12:28:24.804Z,11.40
2023-04-29T12:30:54.265Z,11.40
2023-04-29T12:33:24.595Z,11.40
2023-04-29T12:35:56.702Z,11.40
2023-04-29T12:38:27.662Z,11.40
2023-04-29T12:40:55.325Z,11.50
2023-04-29T12:43:29.957Z,11.90
2023-04-29T12:46:08.070Z,12.10
2023-04-29T12:48:39.120Z,12.30
2023-04-29T12:51:08.183Z,12.40
2023-04-29T12:53:34.885Z,12.40
2023-04-29T12:56:02.000Z,12.40
2023-04-29T12:58:30.576Z,12.50
2023-04-29T13:00:58.129Z,12.50
2023-04-29T13:03:25.230Z,12.30
2023-04-29T13:05:54.590Z,12.30
2023-04-29T13:08:21.611Z,12.20
2023-04-29T13:10:48.326Z,12.10
2023-04-29T13:13:15.057Z,11.90
2023-04-29T13:15:42.436Z,11.80
2023-04-29T13:18:09.045Z,11.70
2023-04-29T13:20:40.822Z,11.70
2023-04-29T13:23:08.861Z,11.70
2023-04-29T13:25:36.016Z,11.60
2023-04-29T13:28:02.928Z,11.60
2023-04-29T13:30:31.010Z,11.60
2023-04-29T13:33:03.963Z,11.50
2023-04-29T13:35:38.245Z,11.60
2023-04-29T13:38:05.265Z,11.70
2023-04-29T13:40:37.411Z,11.70
2023-04-29T13:43:09.298Z,11.70
2023-04-29T13:45:39.547Z,11.60
2023-04-29T13:48:24.531Z,11.50
2023-04-29T13:53:56.995Z,11.40
2023-04-29T14:03:55.160Z,11.40
2023-04-29T14:06:22.201Z,11.50
2023-04-29T14:08:48.799Z,11.80
2023-04-29T14:11:16.938Z,12.20
2023-04-29T14:13:43.914Z,12.50
2023-04-29T14:16:10.545Z,12.80
2023-04-29T14:18:37.191Z,13.10
2023-04-29T14:21:03.927Z,13.20
2023-04-29T14:23:30.499Z,13.20
2023-04-29T14:26:11.632Z,13.30
2023-04-29T14:28:43.740Z,13.20
2023-04-29T14:31:11.166Z,13.30
2023-04-29T14:33:37.793Z,13.40
2023-04-29T14:36:04.999Z,13.50
2023-04-29T14:38:31.640Z,13.50
2023-04-29T14:40:58.222Z,13.60
2023-04-29T14:43:26.372Z,13.60
2023-04-29T14:45:53.044Z,13.70
2023-04-29T14:48:19.766Z,13.80
2023-04-29T14:50:46.697Z,13.80
2023-04-29T14:53:13.372Z,14.20
2023-04-29T14:55:39.939Z,14.20
2023-04-29T14:58:10.145Z,14.20
2023-04-29T15:00:36.804Z,14.20
2023-04-29T15:03:05.201Z,14.30
2023-04-29T15:05:32.125Z,14.30
2023-04-29T15:08:00.207Z,14.30
2023-04-29T15:10:30.097Z,14.40
2023-04-29T15:12:56.765Z,14.20
2023-04-29T15:15:23.823Z,14.20
2023-04-29T15:17:50.794Z,14.00
2023-04-29T15:20:17.532Z,13.90
2023-04-29T15:22:44.349Z,13.80
2023-04-29T15:25:11.100Z,13.50
2023-04-29T15:27:38.282Z,13.40
2023-04-29T15:30:06.602Z,13.30
2023-04-29T15:32:33.267Z,13.20
2023-04-29T15:35:01.142Z,13.30
2023-04-29T15:37:28.346Z,13.10
2023-04-29T15:39:56.475Z,13.00
2023-04-29T15:42:23.242Z,13.00
2023-04-29T15:44:50.121Z,12.90
2023-04-29T15:47:17.025Z,12.80
2023-04-29T15:49:44.134Z,12.70
2023-04-29T15:52:10.882Z,12.70
2023-04-29T15:54:37.557Z,12.60
2023-04-29T15:57:04.388Z,12.40
2023-04-29T15:59:31.581Z,12.40
2023-04-29T16:01:58.254Z,12.40
2023-04-29T16:04:24.961Z,12.40
2023-04-29T16:06:53.238Z,12.30
2023-04-29T16:09:21.432Z,12.20
2023-04-29T16:11:48.107Z,12.20
2023-04-29T16:14:14.716Z,12.10
2023-04-29T16:16:41.428Z,12.10
2023-04-29T16:19:09.615Z,12.10
2023-04-29T16:21:37.023Z,12.10
2023-04-29T16:24:03.890Z,12.20
2023-04-29T16:26:30.574Z,12.20
2023-04-29T16:28:57.839Z,12.20
2023-04-29T16:31:24.556Z,12.10
2023-04-29T16:33:51.181Z,12.10
2023-04-29T16:36:18.024Z,12.10
2023-04-29T16:38:44.602Z,12.10
2023-04-29T16:41:11.319Z,12.10
2023-04-29T16:43:37.987Z,12.20
2023-04-29T16:46:04.940Z,12.20
2023-04-29T16:48:31.916Z,12.20
2023-04-29T16:50:58.593Z,12.30
2023-04-29T16:53:25.244Z,12.40
2023-04-29T16:55:52.136Z,12.50
2023-04-29T16:58:19.352Z,12.60
2023-04-29T17:00:46.440Z,12.60
2023-04-29T17:03:13.437Z,12.60
2023-04-29T17:05:41.511Z,12.60
2023-04-29T17:08:08.552Z,12.50
2023-04-29T17:10:35.562Z,12.40
2023-04-29T17:13:03.436Z,12.40
2023-04-29T17:15:30.161Z,12.30
2023-04-29T17:17:56.863Z,12.30
2023-04-29T17:20:23.559Z,12.30
2023-04-29T17:22:50.496Z,12.30
2023-04-29T17:25:17.858Z,12.20
2023-04-29T17:27:45.922Z,12.20
2023-04-29T17:30:13.241Z,12.20
2023-04-29T17:32:40.494Z,12.20
2023-04-29T17:35:08.763Z,12.20
2023-04-29T17:37:35.505Z,12.10
2023-04-29T17:40:02.534Z,12.10
2023-04-29T17:42:29.163Z,12.00
2023-04-29T17:44:56.870Z,12.00
2023-04-29T17:47:23.627Z,11.90
2023-04-29T17:49:52.081Z,12.00
2023-04-29T17:52:21.389Z,12.00
2023-04-29T17:54:48.760Z,12.00
2023-04-29T17:57:15.692Z,12.00
2023-04-29T17:59:42.325Z,12.00
2023-04-29T18:02:09.031Z,12.00
2023-04-29T18:04:37.253Z,12.00
2023-04-29T18:07:03.963Z,12.00
2023-04-29T18:09:30.664Z,11.90
2023-04-29T18:11:57.315Z,11.80
2023-04-29T18:14:24.555Z,11.80
2023-04-29T18:16:51.503Z,11.80
2023-04-29T18:19:18.157Z,11.80
2023-04-29T18:21:47.776Z,11.80
2023-04-29T18:24:14.428Z,11.80
2023-04-29T18:26:42.154Z,11.70
2023-04-29T18:29:09.601Z,11.70
2023-04-29T18:31:36.307Z,11.70
2023-04-29T18:34:03.350Z,11.70
2023-04-29T18:36:32.199Z,11.60
2023-04-29T18:38:58.786Z,11.60
2023-04-29T18:41:25.586Z,11.60
2023-04-29T18:43:53.401Z,11.50
2023-04-29T18:46:20.109Z,11.50
2023-04-29T18:48:46.766Z,11.50
2023-04-29T18:51:13.395Z,11.50
2023-04-29T18:53:41.145Z,11.40
2023-04-29T18:56:08.351Z,11.30
2023-04-29T18:58:35.970Z,11.30
2023-04-29T19:01:03.007Z,11.20
2023-04-29T19:03:29.657Z,11.20
2023-04-29T19:05:56.367Z,11.10
2023-04-29T19:08:23.058Z,11.00
2023-04-29T19:10:49.945Z,10.90
2023-04-29T19:13:16.786Z,10.90
2023-04-29T19:15:43.645Z,10.90
2023-04-29T19:18:10.314Z,10.80
2023-04-29T19:20:41.249Z,10.80
2023-04-29T19:23:07.846Z,10.80
2023-04-29T19:25:34.438Z,10.80
2023-04-29T19:28:01.341Z,10.70
2023-04-29T19:30:27.915Z,10.60
2023-04-29T19:32:54.586Z,10.60
2023-04-29T19:35:21.435Z,10.50
2023-04-29T19:37:48.028Z,10.40
2023-04-29T19:40:14.773Z,10.20
2023-04-29T19:42:41.440Z,10.10
2023-04-29T19:45:09.375Z,9.90
2023-04-29T19:47:36.287Z,9.80
2023-04-29T19:50:04.425Z,9.70
2023-04-29T19:52:31.456Z,9.70
2023-04-29T19:54:58.105Z,9.60
2023-04-29T19:57:25.026Z,9.50
2023-04-29T19:59:51.789Z,9.50
2023-04-29T20:02:19.107Z,9.40
2023-04-29T20:04:45.972Z,9.20
2023-04-29T20:07:12.551Z,9.20
2023-04-29T20:09:39.671Z,9.10
2023-04-29T20:12:06.883Z,9.10
2023-04-29T20:14:33.525Z,9.10
2023-04-29T20:17:00.809Z,9.10
2023-04-29T20:19:27.758Z,9.10
2023-04-29T20:21:54.413Z,9.10
2023-04-29T20:24:21.607Z,9.10
2023-04-29T20:26:48.345Z,9.10
2023-04-29T20:29:14.999Z,9.10
2023-04-29T20:31:41.723Z,9.10
2023-04-29T20:34:08.523Z,9.10
2023-04-29T20:36:35.219Z,9.00
2023-04-29T20:39:02.090Z,9.00
2023-04-29T20:41:29.074Z,8.90
2023-04-29T20:43:56.195Z,9.00
2023-04-29T20:46:25.308Z,8.90
2023-04-29T20:48:52.923Z,8.90
2023-04-29T20:51:19.506Z,8.90
2023-04-29T20:53:46.687Z,8.80
2023-04-29T20:56:13.694Z,8.80
2023-04-29T20:58:40.513Z,8.80
2023-04-29T21:01:07.200Z,8.70
2023-04-29T21:03:34.693Z,8.70
2023-04-29T21:06:01.380Z,8.70
2023-04-29T21:08:28.033Z,8.70
2023-04-29T21:10:54.639Z,8.60
2023-04-29T21:13:21.397Z,8.60
2023-04-29T21:15:48.189Z,8.60
2023-04-29T21:18:14.990Z,8.60
2023-04-29T21:20:41.837Z,8.60
2023-04-29T21:23:08.461Z,8.60
2023-04-29T21:25:35.139Z,8.60
2023-04-29T21:28:01.921Z,8.60
2023-04-29T21:30:28.624Z,8.60
2023-04-29T21:32:55.559Z,8.60
2023-04-29T21:35:28.964Z,8.60
2023-04-29T21:37:56.232Z,8.60
2023-04-29T21:40:23.696Z,8.60
2023-04-29T21:42:51.076Z,8.60
2023-04-29T21:45:17.880Z,8.60
2023-04-29T21:47:45.031Z,8.60
2023-04-29T21:50:11.981Z,8.60
2023-04-29T21:52:38.739Z,8.60
2023-04-29T21:55:06.380Z,8.70
2023-04-29T21:57:43.603Z,8.70
2023-04-29T22:00:39.930Z,8.70
2023-04-29T22:03:10.038Z,8.70
2023-04-29T22:05:37.203Z,8.70
2023-04-29T22:08:07.274Z,8.70
2023-04-29T22:10:34.297Z,8.60
2023-04-29T22:13:00.976Z,8.60
2023-04-29T22:15:29.229Z,8.60
2023-04-29T22:17:57.345Z,8.70
2023-04-29T22:20:24.488Z,8.90
2023-04-29T22:22:51.997Z,8.70
2023-04-29T22:25:20.932Z,9.30
2023-04-29T22:27:49.290Z,8.70
2023-04-29T22:30:17.665Z,8.80
2023-04-29T22:32:44.639Z,8.80
2023-04-29T22:35:11.497Z,8.80
2023-04-29T22:37:38.120Z,8.80
2023-04-29T22:40:05.338Z,8.70
2023-04-29T22:42:31.979Z,8.70
2023-04-29T22:44:58.803Z,8.70
2023-04-29T22:47:26.369Z,8.70
2023-04-29T22:49:53.125Z,8.70
2023-04-29T22:52:20.050Z,8.70
2023-04-29T22:54:46.758Z,8.80
2023-04-29T22:57:13.380Z,8.80
2023-04-29T22:59:39.992Z,8.80
2023-04-29T23:02:06.847Z,8.70
2023-04-29T23:04:33.530Z,8.90
2023-04-29T23:07:00.429Z,8.90
2023-04-29T23:09:27.160Z,8.90
2023-04-29T23:11:53.924Z,8.90
2023-04-29T23:14:21.590Z,8.80
2023-04-29T23:16:48.220Z,8.80
2023-04-29T23:19:14.900Z,8.70
2023-04-29T23:21:41.999Z,8.80
2023-04-29T23:24:08.613Z,8.70
2023-04-29T23:26:35.254Z,8.70
2023-04-29T23:29:01.848Z,8.70
2023-04-29T23:31:28.601Z,8.70
2023-04-29T23:33:55.348Z,8.60
2023-04-29T23:36:21.928Z,8.60
2023-04-29T23:38:48.541Z,8.60
2023-04-29T23:41:15.258Z,8.60
2023-04-29T23:43:41.975Z,8.50
2023-04-29T23:46:09.083Z,8.60
2023-04-29T23:48:36.212Z,8.60
2023-04-29T23:51:03.070Z,8.60
2023-04-29T23:53:29.659Z,8.60
2023-04-29T23:55:56.468Z,8.70
2023-04-29T23:58:24.107Z,8.70
